Time;durP1;ratioP1;P1;durP2;ratioP2;P2;SDS_P1;SDS_P2;PMS_P1;PMS_P2;Temp;Humidity;BMP_temperature;BMP_pressure;BME280_temperature;BME280_humidity;BME280_pressure;Samples;Min_cycle;Max_cycle;Signal;HPM_P1;HPM_P2
2021/05/20 00:00:33;;;;;;;4.28;2.90;;;;;;;;;;6194109;23;20210;-91
2021/05/20 00:03:38;;;;;;;5.45;2.40;;;;;;;;;;6193582;23;20256;-91
2021/05/20 00:06:42;;;;;;;4.57;2.50;;;;;;;;;;6177139;23;20244;-92
2021/05/20 00:09:47;;;;;;;5.30;2.90;;;;;;;;;;6194215;23;20219;-92
2021/05/20 00:12:52;;;;;;;5.53;2.70;;;;;;;;;;6194532;23;20216;-91
2021/05/20 00:15:56;;;;;;;3.97;2.60;;;;;;;;;;6194699;23;20171;-92
2021/05/20 00:19:01;;;;;;;4.00;2.72;;;;;;;;;;6194205;23;20171;-91
2021/05/20 00:22:05;;;;;;;7.25;3.28;;;;;;;;;;6194972;23;20164;-92
2021/05/20 00:25:11;;;;;;;4.80;2.72;;;;;;;;;;6176754;23;20231;-91
2021/05/20 00:28:16;;;;;;;5.70;2.70;;;;;;;;;;6175997;23;20199;-91
2021/05/20 00:31:21;;;;;;;5.05;2.58;;;;;;;;;;6193829;23;20188;-91
2021/05/20 00:34:25;;;;;;;6.60;3.28;;;;;;;;;;6193382;23;20163;-91
2021/05/20 00:37:30;;;;;;;6.47;3.17;;;;;;;;;;6176678;23;20163;-92
2021/05/20 00:40:35;;;;;;;5.07;2.88;;;;;;;;;;6193054;23;20247;-91
2021/05/20 00:43:41;;;;;;;4.07;2.85;;;;;;;;;;6192991;23;20167;-91
2021/05/20 00:46:47;;;;;;;5.20;3.13;;;;;;;;;;6177632;23;20175;-93
2021/05/20 00:49:51;;;;;;;6.35;2.90;;;;;;;;;;6195334;23;20199;-93
2021/05/20 00:52:56;;;;;;;5.18;2.65;;;;;;;;;;6194625;23;20295;-91
2021/05/20 00:56:02;;;;;;;4.78;2.60;;;;;;;;;;6193975;23;20226;-92
2021/05/20 00:59:06;;;;;;;3.42;2.50;;;;;;;;;;6193696;23;20218;-92
2021/05/20 01:02:11;;;;;;;5.15;2.80;;;;;;;;;;6205359;23;20187;-92
2021/05/20 01:05:16;;;;;;;4.18;2.40;;;;;;;;;;6193929;23;20171;-92
2021/05/20 01:08:21;;;;;;;4.53;2.20;;;;;;;;;;6192850;23;20171;-91
2021/05/20 01:11:26;;;;;;;3.10;2.35;;;;;;;;;;6193638;23;20155;-91
2021/05/20 01:14:30;;;;;;;3.10;2.28;;;;;;;;;;6194513;23;20164;-93
2021/05/20 01:17:35;;;;;;;6.07;2.15;;;;;;;;;;6193968;23;20175;-92
2021/05/20 01:20:41;;;;;;;3.72;2.17;;;;;;;;;;6194525;23;20187;-92
2021/05/20 01:23:46;;;;;;;5.32;2.20;;;;;;;;;;6193283;23;20248;-91
2021/05/20 01:26:51;;;;;;;3.17;1.88;;;;;;;;;;6193599;23;20188;-90
2021/05/20 01:29:56;;;;;;;6.75;2.10;;;;;;;;;;6193254;23;20168;-92
2021/05/20 01:33:01;;;;;;;2.67;2.03;;;;;;;;;;6193180;23;20194;-91
2021/05/20 01:36:07;;;;;;;3.30;2.10;;;;;;;;;;6193866;23;20172;-91
2021/05/20 01:39:12;;;;;;;4.38;2.00;;;;;;;;;;6194447;23;20260;-91
2021/05/20 01:42:16;;;;;;;2.87;1.60;;;;;;;;;;6192509;23;20284;-92
2021/05/20 01:45:21;;;;;;;4.03;2.05;;;;;;;;;;6193164;23;20192;-92
2021/05/20 01:48:25;;;;;;;5.15;1.70;;;;;;;;;;6194267;23;20163;-92
2021/05/20 01:51:31;;;;;;;3.28;1.70;;;;;;;;;;6195079;23;20171;-90
2021/05/20 01:54:35;;;;;;;3.13;1.60;;;;;;;;;;6195505;23;20191;-91
2021/05/20 01:57:39;;;;;;;5.60;2.03;;;;;;;;;;6195645;23;20172;-91
2021/05/20 02:00:44;;;;;;;3.75;1.70;;;;;;;;;;6195042;23;20199;-92
2021/05/20 02:03:48;;;;;;;1.73;1.40;;;;;;;;;;6194741;23;20171;-91
2021/05/20 02:06:54;;;;;;;3.88;1.50;;;;;;;;;;6177670;23;20543;-91
2021/05/20 02:09:59;;;;;;;4.82;1.75;;;;;;;;;;6194448;23;20192;-91
2021/05/20 02:13:03;;;;;;;2.90;1.60;;;;;;;;;;6193380;23;20192;-92
2021/05/20 02:16:08;;;;;;;2.00;1.40;;;;;;;;;;6194350;23;20191;-92
2021/05/20 02:19:12;;;;;;;3.22;1.50;;;;;;;;;;6193702;23;20164;-91
2021/05/20 02:22:17;;;;;;;3.85;1.50;;;;;;;;;;6193345;23;20183;-92
2021/05/20 02:25:21;;;;;;;3.15;1.63;;;;;;;;;;6192845;23;20244;-92
2021/05/20 02:28:26;;;;;;;4.20;1.75;;;;;;;;;;6194155;23;20225;-91
2021/05/20 02:31:31;;;;;;;3.17;1.80;;;;;;;;;;6192896;23;20191;-92
2021/05/20 02:34:36;;;;;;;4.65;1.50;;;;;;;;;;6193448;23;20180;-91
2021/05/20 02:37:41;;;;;;;1.92;1.30;;;;;;;;;;6193853;23;20172;-92
2021/05/20 02:40:46;;;;;;;2.90;1.35;;;;;;;;;;6176567;23;20203;-91
2021/05/20 02:43:50;;;;;;;2.45;1.40;;;;;;;;;;6193959;23;20167;-92
2021/05/20 02:46:55;;;;;;;1.98;1.10;;;;;;;;;;6194007;23;20728;-90
2021/05/20 02:50:00;;;;;;;2.93;1.30;;;;;;;;;;6193381;23;20167;-92
2021/05/20 02:53:05;;;;;;;3.00;1.30;;;;;;;;;;6192404;23;20196;-91
2021/05/20 02:56:10;;;;;;;1.93;1.20;;;;;;;;;;6191962;23;20192;-92
2021/05/20 02:59:14;;;;;;;1.30;1.00;;;;;;;;;;6193567;23;20188;-90
2021/05/20 03:02:19;;;;;;;5.28;1.20;;;;;;;;;;6207534;23;20245;-92
2021/05/20 03:05:23;;;;;;;4.07;1.40;;;;;;;;;;6193058;23;20248;-92
2021/05/20 03:08:29;;;;;;;1.10;0.90;;;;;;;;;;6193515;23;20599;-92
2021/05/20 03:11:36;;;;;;;1.83;1.17;;;;;;;;;;6192378;23;20185;-91
2021/05/20 03:14:40;;;;;;;2.13;1.20;;;;;;;;;;6193693;23;20172;-90
2021/05/20 03:17:48;;;;;;;3.33;1.20;;;;;;;;;;6194751;23;20231;-91
2021/05/20 03:20:52;;;;;;;2.20;1.20;;;;;;;;;;6193308;23;20168;-92
2021/05/20 03:23:57;;;;;;;3.73;1.40;;;;;;;;;;6193340;23;20159;-90
2021/05/20 03:27:02;;;;;;;1.63;1.00;;;;;;;;;;6193501;23;20210;-91
2021/05/20 03:30:07;;;;;;;1.30;0.73;;;;;;;;;;6193736;23;20182;-92
2021/05/20 03:33:12;;;;;;;2.95;0.90;;;;;;;;;;6192280;23;20219;-90
2021/05/20 03:36:17;;;;;;;2.60;1.10;;;;;;;;;;6194823;23;20194;-91
2021/05/20 03:39:22;;;;;;;2.20;1.10;;;;;;;;;;6193290;23;20171;-91
2021/05/20 03:42:26;;;;;;;3.47;1.03;;;;;;;;;;6194274;23;20171;-91
2021/05/20 03:45:31;;;;;;;4.53;1.50;;;;;;;;;;6193118;23;20256;-90
2021/05/20 03:48:35;;;;;;;1.70;1.10;;;;;;;;;;6193832;23;20616;-93
2021/05/20 03:51:40;;;;;;;2.53;0.93;;;;;;;;;;6193416;23;20258;-91
2021/05/20 03:54:46;;;;;;;1.40;0.80;;;;;;;;;;6192853;23;20173;-92
2021/05/20 03:57:50;;;;;;;2.00;1.10;;;;;;;;;;6194264;23;20490;-91
2021/05/20 04:00:55;;;;;;;4.17;1.10;;;;;;;;;;6194227;23;20236;-90
2021/05/20 04:03:59;;;;;;;1.50;0.90;;;;;;;;;;6194163;23;20240;-92
2021/05/20 04:07:04;;;;;;;1.23;0.90;;;;;;;;;;6193067;23;20172;-92
2021/05/20 04:10:13;;;;;;;3.30;1.07;;;;;;;;;;6177082;23;20173;-91
2021/05/20 04:13:27;;;;;;;1.67;1.10;;;;;;;;;;6194303;23;20195;-90
2021/05/20 04:16:32;;;;;;;1.40;1.10;;;;;;;;;;6177410;23;20223;-92
2021/05/20 04:19:37;;;;;;;5.90;1.20;;;;;;;;;;6162981;23;20244;-91
2021/05/20 04:22:42;;;;;;;3.03;1.10;;;;;;;;;;6196204;23;20167;-89
2021/05/20 04:25:48;;;;;;;1.60;1.00;;;;;;;;;;6193726;23;20191;-91
2021/05/20 04:28:52;;;;;;;1.95;1.00;;;;;;;;;;6193299;23;20223;-91
2021/05/20 04:31:56;;;;;;;3.00;1.17;;;;;;;;;;6193673;23;20647;-92
2021/05/20 04:35:01;;;;;;;3.30;1.10;;;;;;;;;;6194231;23;20214;-91
2021/05/20 04:38:06;;;;;;;4.45;1.30;;;;;;;;;;6195694;23;20171;-92
2021/05/20 04:41:12;;;;;;;2.33;1.10;;;;;;;;;;6195487;23;20187;-93
2021/05/20 04:44:16;;;;;;;3.03;1.20;;;;;;;;;;6194260;23;20287;-91
2021/05/20 04:47:21;;;;;;;3.20;1.20;;;;;;;;;;6194467;23;20559;-91
2021/05/20 04:50:26;;;;;;;3.88;1.20;;;;;;;;;;6197230;23;20172;-92
2021/05/20 04:53:30;;;;;;;2.10;1.20;;;;;;;;;;6199641;23;20215;-92
2021/05/20 04:56:35;;;;;;;3.97;1.13;;;;;;;;;;6197118;23;20268;-90
2021/05/20 04:59:40;;;;;;;3.30;1.55;;;;;;;;;;6197943;23;20224;-91
2021/05/20 05:02:45;;;;;;;5.00;1.33;;;;;;;;;;6202877;23;20155;-90
2021/05/20 05:05:51;;;;;;;3.78;1.40;;;;;;;;;;6198642;23;20192;-91
2021/05/20 05:08:55;;;;;;;2.20;1.20;;;;;;;;;;6198559;23;20215;-91
2021/05/20 05:12:02;;;;;;;2.67;0.82;;;;;;;;;;6199635;23;20219;-92
2021/05/20 05:15:08;;;;;;;4.72;1.33;;;;;;;;;;6198271;23;20196;-90
2021/05/20 05:18:13;;;;;;;2.65;1.10;;;;;;;;;;6179692;23;20222;-91
2021/05/20 05:21:18;;;;;;;4.22;1.73;;;;;;;;;;6201407;23;20213;-92
2021/05/20 05:24:23;;;;;;;2.55;1.20;;;;;;;;;;6197785;23;20171;-90
2021/05/20 05:27:43;;;;;;;3.88;1.42;;;;;;;;;;6202422;23;20505;-91
2021/05/20 05:30:49;;;;;;;3.53;1.20;;;;;;;;;;6192281;23;20176;-91
2021/05/20 05:34:01;;;;;;;2.22;1.30;;;;;;;;;;6201361;23;20219;31
2021/05/20 05:37:06;;;;;;;4.68;1.40;;;;;;;;;;6095943;23;20191;-90
2021/05/20 05:40:11;;;;;;;3.73;1.10;;;;;;;;;;6099271;23;20169;-89
2021/05/20 05:43:15;;;;;;;7.77;1.70;;;;;;;;;;6095418;23;20523;-91
2021/05/20 05:46:21;;;;;;;3.70;1.50;;;;;;;;;;6097174;23;20166;-89
2021/05/20 05:49:28;;;;;;;3.45;2.00;;;;;;;;;;6093585;23;20218;-90
2021/05/20 05:52:33;;;;;;;4.32;1.55;;;;;;;;;;6094024;23;20238;-90
2021/05/20 05:55:37;;;;;;;7.90;1.50;;;;;;;;;;6096436;23;20170;-91
2021/05/20 05:58:42;;;;;;;3.80;1.70;;;;;;;;;;6094419;23;20172;-91
2021/05/20 06:01:47;;;;;;;3.15;1.85;;;;;;;;;;6093002;23;20173;-90
2021/05/20 06:04:52;;;;;;;2.45;1.75;;;;;;;;;;6091675;23;20254;-92
2021/05/20 06:07:57;;;;;;;5.88;2.25;;;;;;;;;;6095497;23;20198;-91
2021/05/20 06:11:02;;;;;;;3.35;2.08;;;;;;;;;;6092818;23;20594;-90
2021/05/20 06:14:07;;;;;;;3.60;2.38;;;;;;;;;;6093874;23;20173;-90
2021/05/20 06:17:16;;;;;;;3.03;1.90;;;;;;;;;;6090245;23;20178;-88
2021/05/20 06:20:21;;;;;;;8.23;2.10;;;;;;;;;;6091822;23;20153;-90
2021/05/20 06:23:25;;;;;;;2.67;1.77;;;;;;;;;;6091621;23;20170;-89
2021/05/20 06:26:29;;;;;;;3.97;2.00;;;;;;;;;;6093116;23;20198;-91
2021/05/20 06:29:35;;;;;;;6.32;1.77;;;;;;;;;;6094913;23;20230;-89
2021/05/20 06:32:41;;;;;;;4.80;2.05;;;;;;;;;;6089508;23;20193;-91
2021/05/20 06:35:47;;;;;;;6.07;2.25;;;;;;;;;;6100921;23;20201;-92
2021/05/20 06:38:52;;;;;;;5.63;2.30;;;;;;;;;;6127031;23;20190;-91
2021/05/20 06:41:56;;;;;;;4.63;1.90;;;;;;;;;;6109978;23;20186;-90
2021/05/20 06:45:01;;;;;;;5.15;1.98;;;;;;;;;;6110094;23;20174;-90
2021/05/20 06:48:07;;;;;;;6.05;2.17;;;;;;;;;;6126734;23;20173;-89
2021/05/20 06:51:11;;;;;;;4.03;1.95;;;;;;;;;;6126053;23;20173;-92
2021/05/20 06:54:16;;;;;;;3.28;1.80;;;;;;;;;;6107828;23;20244;-91
2021/05/20 06:57:24;;;;;;;5.97;2.15;;;;;;;;;;6126127;23;20219;-92
2021/05/20 07:00:30;;;;;;;6.03;2.20;;;;;;;;;;6127919;23;20166;-92
2021/05/20 07:03:36;;;;;;;6.72;2.00;;;;;;;;;;6107696;23;20195;-92
2021/05/20 07:06:41;;;;;;;3.47;2.22;;;;;;;;;;6129456;23;20397;-91
2021/05/20 07:09:46;;;;;;;5.07;1.90;;;;;;;;;;6127170;23;20190;-91
2021/05/20 07:12:51;;;;;;;4.57;1.88;;;;;;;;;;6125836;23;20194;-91
2021/05/20 07:15:55;;;;;;;4.22;1.70;;;;;;;;;;6110654;23;20169;-91
2021/05/20 07:19:01;;;;;;;3.88;1.85;;;;;;;;;;6127679;23;20177;-92
2021/05/20 07:22:08;;;;;;;2.90;1.58;;;;;;;;;;6109913;23;20165;-91
2021/05/20 07:25:13;;;;;;;4.93;2.13;;;;;;;;;;6130397;23;20174;-90
2021/05/20 07:28:19;;;;;;;3.40;1.73;;;;;;;;;;6128270;23;20210;-92
2021/05/20 07:31:24;;;;;;;3.40;1.77;;;;;;;;;;6125517;23;20206;-90
2021/05/20 07:34:32;;;;;;;5.65;2.30;;;;;;;;;;6125931;23;20193;-91
2021/05/20 07:37:37;;;;;;;3.97;2.13;;;;;;;;;;6090919;23;20222;-89
2021/05/20 07:40:41;;;;;;;3.80;2.10;;;;;;;;;;6090762;23;20241;-90
2021/05/20 07:43:46;;;;;;;4.75;2.03;;;;;;;;;;6092623;23;20177;-91
2021/05/20 07:46:54;;;;;;;3.35;1.92;;;;;;;;;;6090375;23;20173;-88
2021/05/20 07:49:59;;;;;;;7.47;2.33;;;;;;;;;;6091253;23;20250;-92
2021/05/20 07:53:03;;;;;;;5.93;2.10;;;;;;;;;;6091250;23;20181;-93
2021/05/20 07:56:08;;;;;;;4.32;1.98;;;;;;;;;;6091441;23;20185;-91
2021/05/20 07:59:14;;;;;;;4.43;1.83;;;;;;;;;;6108356;23;20169;-92
2021/05/20 08:02:28;;;;;;;3.45;1.70;;;;;;;;;;6090439;23;20170;-90
2021/05/20 08:05:39;;;;;;;3.60;1.60;;;;;;;;;;6092185;23;20190;-90
2021/05/20 08:08:52;;;;;;;7.25;2.22;;;;;;;;;;6092765;23;20181;-90
2021/05/20 08:11:57;;;;;;;2.22;1.70;;;;;;;;;;6090316;23;20177;-91
2021/05/20 08:15:01;;;;;;;3.70;1.67;;;;;;;;;;6091929;23;20219;-92
2021/05/20 08:18:06;;;;;;;3.88;1.85;;;;;;;;;;6092578;23;20225;-90
2021/05/20 08:21:12;;;;;;;2.50;1.70;;;;;;;;;;6090175;23;20201;-91
2021/05/20 08:24:16;;;;;;;4.32;1.77;;;;;;;;;;6090419;23;20229;-91
2021/05/20 08:27:21;;;;;;;3.13;1.70;;;;;;;;;;6091509;23;20249;-90
2021/05/20 08:30:25;;;;;;;1.80;1.50;;;;;;;;;;6089451;23;20174;-91
2021/05/20 08:33:30;;;;;;;6.20;1.98;;;;;;;;;;6091314;23;20197;-91
2021/05/20 08:36:35;;;;;;;3.45;1.85;;;;;;;;;;6090309;23;20176;-91
2021/05/20 08:39:40;;;;;;;3.63;1.70;;;;;;;;;;6105676;23;20194;-91
2021/05/20 08:42:45;;;;;;;3.13;1.60;;;;;;;;;;6093598;23;20222;-90
2021/05/20 08:45:50;;;;;;;8.00;2.10;;;;;;;;;;6107944;23;20237;-90
2021/05/20 08:48:54;;;;;;;6.10;2.17;;;;;;;;;;6108880;23;20248;-91
2021/05/20 08:52:00;;;;;;;2.67;1.55;;;;;;;;;;6109055;23;20498;-90
2021/05/20 08:55:07;;;;;;;8.10;1.77;;;;;;;;;;6108906;23;20177;-92
2021/05/20 08:58:12;;;;;;;4.68;1.65;;;;;;;;;;6109369;23;20237;-91
2021/05/20 09:01:31;;;;;;;6.75;1.63;;;;;;;;;;6109560;23;20634;-90
2021/05/20 09:04:37;;;;;;;3.17;1.75;;;;;;;;;;6110823;23;20177;-90
2021/05/20 09:07:43;;;;;;;2.60;1.33;;;;;;;;;;6109621;23;20181;-90
2021/05/20 09:10:49;;;;;;;4.00;1.83;;;;;;;;;;6108792;23;20173;-90
2021/05/20 09:13:53;;;;;;;2.55;1.48;;;;;;;;;;6106682;23;20202;-89
2021/05/20 09:17:09;;;;;;;4.80;2.00;;;;;;;;;;6109362;23;20192;-91
2021/05/20 09:20:14;;;;;;;3.42;1.55;;;;;;;;;;6109623;23;20170;-91
2021/05/20 09:23:20;;;;;;;5.63;1.52;;;;;;;;;;6108413;23;20170;-91
2021/05/20 09:26:34;;;;;;;4.60;1.17;;;;;;;;;;6108400;23;20173;-92
2021/05/20 09:29:39;;;;;;;2.58;1.27;;;;;;;;;;6109954;23;20178;-91
2021/05/20 09:32:50;;;;;;;3.55;1.25;;;;;;;;;;6107841;23;20205;-91
2021/05/20 09:35:59;;;;;;;13.43;1.98;;;;;;;;;;6069197;23;20242;-92
2021/05/20 09:39:11;;;;;;;3.20;1.33;;;;;;;;;;6079536;23;20229;-93
2021/05/20 09:42:17;;;;;;;2.17;0.93;;;;;;;;;;6076422;23;20212;-91
2021/05/20 09:45:23;;;;;;;2.05;1.35;;;;;;;;;;6060907;23;20179;-91
2021/05/20 09:48:35;;;;;;;3.60;1.05;;;;;;;;;;6078887;23;20171;-91
2021/05/20 09:51:40;;;;;;;2.05;1.08;;;;;;;;;;6079395;23;20170;-90
2021/05/20 09:54:45;;;;;;;2.85;1.20;;;;;;;;;;6079281;23;20184;-91
2021/05/20 09:57:50;;;;;;;2.85;0.93;;;;;;;;;;6082026;23;20170;-92
2021/05/20 10:00:55;;;;;;;1.77;0.98;;;;;;;;;;6064347;23;20198;-92
2021/05/20 10:03:59;;;;;;;3.63;1.00;;;;;;;;;;6078577;23;20198;-92
2021/05/20 10:07:04;;;;;;;3.55;0.80;;;;;;;;;;6081068;23;20179;-91
2021/05/20 10:10:10;;;;;;;3.15;1.00;;;;;;;;;;6064528;23;20298;-90
2021/05/20 10:13:19;;;;;;;4.82;1.38;;;;;;;;;;6081880;23;20214;-90
2021/05/20 10:16:23;;;;;;;1.75;0.80;;;;;;;;;;6080526;23;20238;-91
2021/05/20 10:19:28;;;;;;;1.42;0.80;;;;;;;;;;6080709;23;20167;-90
2021/05/20 10:22:34;;;;;;;2.67;0.70;;;;;;;;;;6079917;23;20240;-90
2021/05/20 10:25:39;;;;;;;0.70;0.70;;;;;;;;;;6080800;23;20223;-91
2021/05/20 10:28:44;;;;;;;2.70;0.70;;;;;;;;;;6082026;23;20177;-90
2021/05/20 10:31:49;;;;;;;1.15;0.70;;;;;;;;;;6081599;23;20174;-89
2021/05/20 10:35:00;;;;;;;2.50;1.00;;;;;;;;;;6093114;23;20218;-90
2021/05/20 10:38:05;;;;;;;1.35;0.75;;;;;;;;;;6095818;23;20198;-91
2021/05/20 10:41:12;;;;;;;2.50;0.80;;;;;;;;;;6094973;23;20243;-90
2021/05/20 10:44:17;;;;;;;2.40;1.10;;;;;;;;;;6094787;23;20169;-91
2021/05/20 10:47:21;;;;;;;2.20;1.10;;;;;;;;;;6095377;23;20645;-93
2021/05/20 10:50:53;;;;;;;1.20;0.82;;;;;;;;;;6094704;23;20218;-94
2021/05/20 10:53:58;;;;;;;1.52;0.95;;;;;;;;;;6095044;23;20213;-93
2021/05/20 10:57:05;;;;;;;2.47;1.00;;;;;;;;;;6093792;23;20170;-92
2021/05/20 11:00:36;;;;;;;2.30;1.08;;;;;;;;;;6092918;23;20226;-91
2021/05/20 11:03:50;;;;;;;1.95;0.90;;;;;;;;;;6091938;23;20170;-91
2021/05/20 11:06:58;;;;;;;2.67;0.80;;;;;;;;;;6097535;23;20190;-91
2021/05/20 11:10:13;;;;;;;2.65;1.10;;;;;;;;;;6094550;23;20293;-91
2021/05/20 11:13:36;;;;;;;1.63;0.98;;;;;;;;;;6094060;23;20238;-90
2021/05/20 11:16:41;;;;;;;4.00;0.93;;;;;;;;;;6092468;23;20175;-88
2021/05/20 11:19:46;;;;;;;2.65;0.90;;;;;;;;;;6093701;23;20170;-89
2021/05/20 11:23:05;;;;;;;3.45;1.10;;;;;;;;;;6091505;23;20153;-90
2021/05/20 11:26:14;;;;;;;1.23;0.80;;;;;;;;;;6093101;23;20186;-90
2021/05/20 11:29:24;;;;;;;1.75;1.20;;;;;;;;;;6094325;23;20301;-91
2021/05/20 11:32:30;;;;;;;3.25;0.80;;;;;;;;;;6094709;23;20193;-89
2021/05/20 11:35:41;;;;;;;3.97;1.50;;;;;;;;;;6099105;23;20224;-92
2021/05/20 11:38:56;;;;;;;9.90;1.05;;;;;;;;;;6113276;23;20181;-93
2021/05/20 11:42:04;;;;;;;3.53;1.00;;;;;;;;;;6111326;23;20257;-91
2021/05/20 11:45:10;;;;;;;3.53;0.80;;;;;;;;;;6127316;23;20227;-90
2021/05/20 11:48:18;;;;;;;3.35;0.73;;;;;;;;;;6112637;23;20182;-92
2021/05/20 11:51:40;;;;;;;4.35;0.75;;;;;;;;;;6127610;23;20242;-92
2021/05/20 11:54:46;;;;;;;3.13;0.75;;;;;;;;;;6128040;23;20222;-90
2021/05/20 11:58:00;;;;;;;4.88;2.20;;;;;;;;;;6127182;23;20169;-91
2021/05/20 12:01:06;;;;;;;6.63;3.20;;;;;;;;;;6126867;23;20226;-93
2021/05/20 12:04:10;;;;;;;3.25;0.88;;;;;;;;;;6109024;23;20177;-91
2021/05/20 12:07:19;;;;;;;1.73;0.93;;;;;;;;;;6110294;23;20195;-92
2021/05/20 12:10:24;;;;;;;2.00;0.80;;;;;;;;;;6110730;23;20197;-91
2021/05/20 12:13:36;;;;;;;2.85;1.08;;;;;;;;;;6126633;23;20177;-91
2021/05/20 12:16:41;;;;;;;1.80;1.27;;;;;;;;;;6125711;23;20235;-90
2021/05/20 12:19:46;;;;;;;2.03;1.10;;;;;;;;;;6126797;23;20158;-90
2021/05/20 12:22:51;;;;;;;3.42;1.10;;;;;;;;;;6124677;23;20594;-90
2021/05/20 12:25:57;;;;;;;2.03;1.17;;;;;;;;;;6128501;23;20170;-91
2021/05/20 12:29:01;;;;;;;1.38;1.10;;;;;;;;;;6127036;23;20608;-92
2021/05/20 12:32:07;;;;;;;1.45;0.85;;;;;;;;;;6109886;23;20214;-91
2021/05/20 12:35:21;;;;;;;2.38;0.93;;;;;;;;;;6111040;23;20637;-90
2021/05/20 12:38:30;;;;;;;2.50;0.90;;;;;;;;;;6123935;23;20199;-90
2021/05/20 12:41:36;;;;;;;2.00;0.90;;;;;;;;;;6107946;23;20621;-89
2021/05/20 12:44:41;;;;;;;1.38;0.75;;;;;;;;;;6108034;23;20201;-90
2021/05/20 12:47:47;;;;;;;1.10;0.80;;;;;;;;;;6107252;23;20222;-89
2021/05/20 12:50:53;;;;;;;0.95;0.65;;;;;;;;;;6108669;23;20182;-89
2021/05/20 12:53:58;;;;;;;3.22;0.85;;;;;;;;;;6106557;23;20509;-89
2021/05/20 12:57:04;;;;;;;1.30;0.70;;;;;;;;;;6123142;23;20169;-89
2021/05/20 13:00:09;;;;;;;0.45;0.45;;;;;;;;;;6124071;23;20249;-89
2021/05/20 13:03:15;;;;;;;1.40;0.80;;;;;;;;;;6122824;23;20245;-90
2021/05/20 13:06:21;;;;;;;2.42;0.80;;;;;;;;;;6122597;23;20173;-90
2021/05/20 13:09:29;;;;;;;2.03;0.70;;;;;;;;;;6105433;23;20177;-89
2021/05/20 13:12:42;;;;;;;2.63;0.77;;;;;;;;;;6124203;23;20162;-90
2021/05/20 13:15:52;;;;;;;1.83;0.85;;;;;;;;;;6107798;23;20206;-91
2021/05/20 13:22:34;;;;;;;1.08;0.60;;;;;;;;;;6109083;23;20174;-92
2021/05/20 13:25:39;;;;;;;0.65;0.50;;;;;;;;;;6126376;23;20196;-90
2021/05/20 13:28:52;;;;;;;2.85;0.80;;;;;;;;;;6114869;23;20222;-91
2021/05/20 13:31:56;;;;;;;3.95;0.90;;;;;;;;;;6128441;23;20657;-91
2021/05/20 13:35:03;;;;;;;6.13;0.80;;;;;;;;;;6124011;23;20192;-89
2021/05/20 13:38:08;;;;;;;2.58;0.63;;;;;;;;;;6092511;23;20173;-90
2021/05/20 13:41:13;;;;;;;1.10;0.60;;;;;;;;;;6088975;23;20206;-89
2021/05/20 13:44:17;;;;;;;3.75;1.30;;;;;;;;;;6091019;23;20210;-89
2021/05/20 13:47:22;;;;;;;1.15;0.80;;;;;;;;;;6092444;23;20195;-92
2021/05/20 13:50:27;;;;;;;0.90;0.60;;;;;;;;;;6093269;23;20222;-91
2021/05/20 13:53:32;;;;;;;1.10;0.70;;;;;;;;;;6090375;23;20222;-91
2021/05/20 13:56:37;;;;;;;3.47;0.75;;;;;;;;;;6093981;23;20166;-93
2021/05/20 13:59:43;;;;;;;0.55;0.50;;;;;;;;;;6094464;23;20275;-91
2021/05/20 14:02:48;;;;;;;2.80;0.77;;;;;;;;;;6093689;23;20197;-92
2021/05/20 14:05:53;;;;;;;0.95;0.60;;;;;;;;;;6094058;23;20174;-92
2021/05/20 14:08:58;;;;;;;1.60;1.10;;;;;;;;;;6096991;23;20186;-92
2021/05/20 14:12:03;;;;;;;3.80;1.55;;;;;;;;;;6093732;23;20205;-92
2021/05/20 14:15:08;;;;;;;3.03;0.70;;;;;;;;;;6091741;23;20575;-90
2021/05/20 14:18:12;;;;;;;2.13;0.80;;;;;;;;;;6093598;23;20174;-91
2021/05/20 14:21:21;;;;;;;3.10;0.73;;;;;;;;;;6090845;23;20603;-90
2021/05/20 14:24:28;;;;;;;1.15;0.60;;;;;;;;;;6093342;23;20279;-90
2021/05/20 14:27:34;;;;;;;0.93;0.60;;;;;;;;;;6093008;23;20239;-89
2021/05/20 14:30:38;;;;;;;1.90;0.70;;;;;;;;;;6089005;23;20330;-90
2021/05/20 14:33:43;;;;;;;2.47;1.33;;;;;;;;;;6094072;23;20178;-90
2021/05/20 14:36:48;;;;;;;1.35;0.77;;;;;;;;;;6062940;23;20177;-88
2021/05/20 14:39:53;;;;;;;1.23;0.60;;;;;;;;;;6060103;23;20174;-87
2021/05/20 14:42:58;;;;;;;0.95;0.70;;;;;;;;;;6061064;23;20198;-89
2021/05/20 14:46:03;;;;;;;1.50;0.70;;;;;;;;;;6061515;23;20183;-90
2021/05/20 14:49:11;;;;;;;1.98;0.85;;;;;;;;;;6060696;23;20173;-89
2021/05/20 14:52:20;;;;;;;1.83;0.75;;;;;;;;;;6060295;23;20175;-88
2021/05/20 14:55:35;;;;;;;2.22;0.70;;;;;;;;;;6059203;23;20242;-89
2021/05/20 14:58:54;;;;;;;2.50;0.73;;;;;;;;;;6060930;23;20190;-88
2021/05/20 15:05:24;;;;;;;1.20;0.90;;;;;;;;;;6061760;23;20158;-87
2021/05/20 15:08:30;;;;;;;1.63;0.90;;;;;;;;;;6060771;23;20242;-88
2021/05/20 15:11:37;;;;;;;2.67;1.50;;;;;;;;;;6059435;23;20221;-88
2021/05/20 15:14:46;;;;;;;1.60;0.80;;;;;;;;;;6060562;23;20257;-89
2021/05/20 15:17:59;;;;;;;1.25;0.80;;;;;;;;;;6058590;23;20178;-88
2021/05/20 15:21:04;;;;;;;0.60;0.60;;;;;;;;;;6061056;23;20189;-87
2021/05/20 15:24:10;;;;;;;1.13;0.75;;;;;;;;;;6062358;23;20634;-89
2021/05/20 15:27:15;;;;;;;6.30;0.70;;;;;;;;;;6061430;23;20227;-90
2021/05/20 15:30:20;;;;;;;4.53;1.02;;;;;;;;;;6060850;23;20181;-88
2021/05/20 15:33:24;;;;;;;3.92;0.80;;;;;;;;;;6059280;23;20170;-90
2021/05/20 15:36:28;;;;;;;0.95;0.68;;;;;;;;;;6076310;23;20182;-88
2021/05/20 15:39:34;;;;;;;18.98;1.00;;;;;;;;;;6079763;23;20218;-91
2021/05/20 15:42:39;;;;;;;2.20;0.80;;;;;;;;;;6079207;23;20188;-90
2021/05/20 15:45:44;;;;;;;4.93;0.93;;;;;;;;;;6076532;23;20246;-88
2021/05/20 15:52:15;;;;;;;3.95;0.77;;;;;;;;;;6075823;23;20158;-88
2021/05/20 15:55:21;;;;;;;0.95;0.57;;;;;;;;;;6091604;23;20218;-88
2021/05/20 15:58:26;;;;;;;1.08;0.70;;;;;;;;;;6074969;23;20187;-89
2021/05/20 16:01:31;;;;;;;1.38;0.70;;;;;;;;;;6076277;23;20619;-89
2021/05/20 16:04:36;;;;;;;1.63;0.80;;;;;;;;;;6077382;23;20194;-89
2021/05/20 16:07:45;;;;;;;1.15;0.73;;;;;;;;;;6075199;23;20173;-88
2021/05/20 16:10:58;;;;;;;2.45;0.90;;;;;;;;;;6099148;23;20210;-87
2021/05/20 16:20:46;;;;;;;6.25;1.00;;;;;;;;;;6083204;23;20255;-88
2021/05/20 16:38:08;;;;;;;2.10;0.90;;;;;;;;;;6079720;23;20266;-91
2021/05/20 16:41:13;;;;;;;2.72;0.90;;;;;;;;;;6086638;23;20194;-89
2021/05/20 16:44:17;;;;;;;3.38;1.15;;;;;;;;;;6089537;23;20218;-90
2021/05/20 16:47:22;;;;;;;5.45;1.40;;;;;;;;;;6087526;23;20206;-90
2021/05/20 16:50:27;;;;;;;6.45;1.80;;;;;;;;;;6089249;23;20177;-90
2021/05/20 16:53:32;;;;;;;2.58;0.90;;;;;;;;;;6086985;23;20173;-89
2021/05/20 16:56:44;;;;;;;3.35;1.05;;;;;;;;;;6087326;23;20240;-90
2021/05/20 16:59:48;;;;;;;1.88;1.35;;;;;;;;;;6086686;23;20250;-88
2021/05/20 17:02:56;;;;;;;1.73;1.10;;;;;;;;;;6085971;23;20174;-90
2021/05/20 17:06:01;;;;;;;155.30;57.22;;;;;;;;;;6087236;23;20242;-89
2021/05/20 17:09:07;;;;;;;6.40;2.90;;;;;;;;;;6087698;23;20886;-89
2021/05/20 17:12:12;;;;;;;6.32;2.70;;;;;;;;;;6086887;23;20188;-90
2021/05/20 17:15:18;;;;;;;12.32;2.22;;;;;;;;;;6087183;23;20232;-90
2021/05/20 17:18:24;;;;;;;5.18;1.45;;;;;;;;;;6087156;23;20170;-88
2021/05/20 17:21:30;;;;;;;3.42;1.10;;;;;;;;;;6090769;23;20189;-88
2021/05/20 17:24:36;;;;;;;4.95;1.42;;;;;;;;;;6091271;23;20197;-88
2021/05/20 17:27:40;;;;;;;2.17;1.17;;;;;;;;;;6090435;23;20258;-88
2021/05/20 17:30:46;;;;;;;2.35;1.35;;;;;;;;;;6090440;23;20173;-89
2021/05/20 17:33:51;;;;;;;4.00;1.10;;;;;;;;;;6089797;23;20173;-87
2021/05/20 17:36:55;;;;;;;3.35;1.30;;;;;;;;;;6088947;23;20178;-88
2021/05/20 17:40:01;;;;;;;3.30;1.35;;;;;;;;;;6091718;23;20185;-89
2021/05/20 17:43:06;;;;;;;1.90;1.42;;;;;;;;;;6091306;23;20234;-89
2021/05/20 17:46:10;;;;;;;4.72;2.88;;;;;;;;;;6090210;23;20169;-89
2021/05/20 17:49:15;;;;;;;2.08;1.35;;;;;;;;;;6091683;23;20280;-87
2021/05/20 17:52:19;;;;;;;1.40;0.90;;;;;;;;;;6090055;23;20222;-87
2021/05/20 17:55:25;;;;;;;2.45;1.27;;;;;;;;;;6088219;23;20165;-88
2021/05/20 17:58:29;;;;;;;1.20;0.80;;;;;;;;;;6088762;23;20170;-90
2021/05/20 18:01:35;;;;;;;2.85;1.00;;;;;;;;;;6089627;23;20178;-89
2021/05/20 18:04:39;;;;;;;4.00;1.67;;;;;;;;;;6090219;23;20212;-88
2021/05/20 18:07:44;;;;;;;3.67;1.38;;;;;;;;;;6090156;23;20174;-88
2021/05/20 18:10:58;;;;;;;2.72;1.08;;;;;;;;;;6089386;23;20221;-89
2021/05/20 18:14:06;;;;;;;1.63;1.00;;;;;;;;;;6090195;23;20178;-87
2021/05/20 18:17:16;;;;;;;1.25;0.85;;;;;;;;;;6090551;23;20290;-90
2021/05/20 18:20:28;;;;;;;1.45;0.90;;;;;;;;;;6090915;23;20182;-89
2021/05/20 18:23:32;;;;;;;1.92;1.00;;;;;;;;;;6089358;23;20194;-88
2021/05/20 18:26:38;;;;;;;3.08;1.38;;;;;;;;;;6090471;23;20178;-88
2021/05/20 18:29:46;;;;;;;2.05;0.90;;;;;;;;;;6090374;23;20508;-89
2021/05/20 18:32:51;;;;;;;3.53;1.10;;;;;;;;;;6089855;23;20174;-89
2021/05/20 18:35:55;;;;;;;1.10;0.80;;;;;;;;;;6099759;23;20218;-90
2021/05/20 18:39:03;;;;;;;2.08;1.10;;;;;;;;;;6123199;23;20212;-89
2021/05/20 18:42:12;;;;;;;2.35;1.30;;;;;;;;;;6104982;23;20181;-90
2021/05/20 18:45:17;;;;;;;18.95;6.05;;;;;;;;;;6123611;23;20198;-89
2021/05/20 18:48:22;;;;;;;6.95;2.47;;;;;;;;;;6106302;23;20178;-90
2021/05/20 18:51:26;;;;;;;3.03;1.63;;;;;;;;;;6124681;23;20174;-89
2021/05/20 18:54:32;;;;;;;3.88;1.60;;;;;;;;;;6106639;23;20231;-89
2021/05/20 18:57:40;;;;;;;3.78;2.10;;;;;;;;;;6106291;23;20240;-90
2021/05/20 19:00:48;;;;;;;7.25;2.83;;;;;;;;;;6107640;23;20670;-89
2021/05/20 19:03:52;;;;;;;3.55;1.90;;;;;;;;;;6124854;23;20217;-91
2021/05/20 19:07:01;;;;;;;3.50;2.13;;;;;;;;;;6107588;23;20670;-88